createdAt,value
2022-12-25T00:01:10.495Z,8.47
2022-12-25T00:03:39.420Z,9.23
2022-12-25T00:06:08.493Z,9.03
2022-12-25T00:08:37.912Z,8.80
2022-12-25T00:11:08.013Z,9.43
2022-12-25T00:13:38.623Z,9.00
2022-12-25T00:16:08.985Z,9.20
2022-12-25T00:18:37.606Z,9.10
2022-12-25T00:21:07.753Z,9.20
2022-12-25T00:23:37.324Z,9.70
2022-12-25T00:26:07.078Z,8.90
2022-12-25T00:28:37.252Z,9.60
2022-12-25T00:31:07.462Z,8.97
2022-12-25T00:33:37.770Z,8.13
2022-12-25T00:36:08.296Z,8.80
2022-12-25T00:38:38.467Z,8.50
2022-12-25T00:41:08.667Z,7.90
2022-12-25T00:43:38.842Z,8.13
2022-12-25T00:46:08.963Z,7.63
2022-12-25T00:48:37.969Z,7.50
2022-12-25T00:51:09.391Z,8.10
2022-12-25T00:53:37.999Z,7.07
2022-12-25T00:56:08.836Z,7.67
2022-12-25T00:58:38.962Z,8.07
2022-12-25T01:01:07.773Z,7.73
2022-12-25T01:03:36.531Z,8.10
2022-12-25T01:06:08.679Z,7.57
2022-12-25T01:08:39.296Z,7.43
2022-12-25T01:11:09.012Z,7.30
2022-12-25T01:13:39.341Z,7.53
2022-12-25T01:16:08.318Z,6.63
2022-12-25T01:18:37.494Z,7.40
2022-12-25T01:21:08.147Z,6.77
2022-12-25T01:23:37.168Z,6.83
2022-12-25T01:26:06.583Z,6.43
2022-12-25T01:28:35.281Z,6.57
2022-12-25T01:31:06.539Z,6.60
2022-12-25T01:33:35.208Z,6.90
2022-12-25T01:36:04.033Z,6.70
2022-12-25T01:38:32.537Z,6.60
2022-12-25T01:41:01.133Z,6.43
2022-12-25T01:43:32.380Z,6.70
2022-12-25T01:46:03.955Z,6.87
2022-12-25T01:48:37.381Z,6.03
2022-12-25T01:51:13.374Z,6.10
2022-12-25T01:53:42.079Z,6.50
2022-12-25T01:56:11.035Z,6.57
2022-12-25T01:58:39.864Z,6.90
2022-12-25T02:01:09.541Z,6.90
2022-12-25T02:03:42.539Z,6.37
2022-12-25T02:06:11.593Z,6.23
2022-12-25T02:08:41.562Z,6.70
2022-12-25T02:11:30.969Z,6.70
2022-12-25T02:13:59.717Z,6.90
2022-12-25T02:16:35.045Z,7.03
2022-12-25T02:19:38.106Z,6.33
2022-12-25T02:22:14.796Z,6.57
2022-12-25T02:24:56.666Z,6.23
2022-12-25T02:27:37.241Z,6.33
2022-12-25T02:30:09.997Z,6.13
2022-12-25T02:32:47.394Z,6.47
2022-12-25T02:35:19.367Z,6.53
2022-12-25T02:37:57.318Z,6.60
2022-12-25T02:40:31.061Z,6.43
2022-12-25T02:43:22.633Z,6.50
2022-12-25T02:46:18.332Z,6.47
2022-12-25T02:49:10.748Z,5.93
2022-12-25T02:52:00.617Z,6.03
2022-12-25T02:54:52.250Z,5.40
2022-12-25T02:57:41.406Z,6.40
2022-12-25T03:00:31.717Z,5.80
2022-12-25T03:03:17.557Z,5.47
2022-12-25T03:06:04.191Z,5.80
2022-12-25T03:08:38.317Z,5.10
2022-12-25T03:11:26.663Z,5.53
2022-12-25T03:14:19.860Z,5.60
2022-12-25T03:16:53.144Z,5.40
2022-12-25T03:19:44.101Z,5.27
2022-12-25T03:22:40.875Z,5.20
2022-12-25T03:25:27.914Z,5.30
2022-12-25T03:27:58.628Z,5.60
2022-12-25T03:30:50.521Z,4.60
2022-12-25T03:33:44.484Z,5.33
2022-12-25T03:36:25.577Z,4.93
2022-12-25T03:39:22.738Z,4.67
2022-12-25T03:42:08.113Z,4.80
2022-12-25T03:44:59.881Z,4.67
2022-12-25T03:47:49.929Z,5.13
2022-12-25T03:50:38.333Z,4.60
2022-12-25T03:53:33.495Z,4.73
2022-12-25T03:56:20.553Z,4.50
2022-12-25T03:59:10.652Z,4.80
2022-12-25T04:01:57.165Z,4.47
2022-12-25T04:04:42.906Z,4.10
2022-12-25T04:07:28.940Z,4.40
2022-12-25T04:10:16.487Z,4.90
2022-12-25T04:13:02.495Z,4.23
2022-12-25T04:15:48.351Z,4.47
2022-12-25T04:18:34.666Z,4.30
2022-12-25T04:21:20.963Z,3.97
2022-12-25T04:24:09.566Z,4.30
2022-12-25T04:26:57.359Z,4.30
2022-12-25T04:29:43.429Z,4.60
2022-12-25T04:32:29.589Z,4.77
2022-12-25T04:35:15.648Z,4.87
2022-12-25T04:37:44.359Z,4.87
2022-12-25T04:40:13.456Z,5.03
2022-12-25T04:42:43.672Z,4.73
2022-12-25T04:45:13.014Z,4.87
2022-12-25T04:47:41.648Z,4.73
2022-12-25T04:50:10.891Z,4.60
2022-12-25T04:52:40.807Z,5.10
2022-12-25T04:55:12.117Z,5.10
2022-12-25T04:57:41.568Z,5.40
2022-12-25T05:00:13.403Z,5.30
2022-12-25T05:02:42.327Z,5.10
2022-12-25T05:05:11.066Z,5.10
2022-12-25T05:07:39.771Z,5.70
2022-12-25T05:10:09.662Z,5.20
2022-12-25T05:12:38.305Z,5.73
2022-12-25T05:15:07.533Z,6.20
2022-12-25T05:17:37.708Z,5.90
2022-12-25T05:20:07.746Z,5.90
2022-12-25T05:22:36.504Z,6.30
2022-12-25T05:25:05.415Z,6.43
2022-12-25T05:27:34.179Z,6.30
2022-12-25T05:30:02.879Z,5.97
2022-12-25T05:32:31.558Z,6.60
2022-12-25T05:35:01.671Z,6.87
2022-12-25T05:37:30.397Z,6.80
2022-12-25T05:39:59.359Z,6.47
2022-12-25T05:42:28.404Z,6.70
2022-12-25T05:44:57.057Z,7.17
2022-12-25T05:47:25.714Z,6.60
2022-12-25T05:49:54.381Z,6.73
2022-12-25T05:52:24.752Z,6.93
2022-12-25T05:54:53.408Z,7.13
2022-12-25T05:57:22.111Z,7.13
2022-12-25T05:59:50.850Z,7.27
2022-12-25T06:02:19.593Z,7.23
2022-12-25T06:04:48.454Z,7.10
2022-12-25T06:07:17.093Z,6.93
2022-12-25T06:09:47.214Z,7.20
2022-12-25T06:12:15.914Z,6.70
2022-12-25T06:14:44.589Z,7.03
2022-12-25T06:17:13.486Z,7.23
2022-12-25T06:19:43.829Z,7.17
2022-12-25T06:22:12.556Z,6.60
2022-12-25T06:24:41.992Z,6.60
2022-12-25T06:27:12.133Z,7.70
2022-12-25T06:29:40.877Z,7.53
2022-12-25T06:32:09.525Z,7.43
2022-12-25T06:34:38.221Z,7.40
2022-12-25T06:37:06.933Z,6.73
2022-12-25T06:39:35.635Z,7.10
2022-12-25T06:42:04.470Z,7.20
2022-12-25T06:44:34.963Z,7.40
2022-12-25T06:47:03.650Z,6.90
2022-12-25T06:49:32.462Z,6.73
2022-12-25T06:52:01.198Z,6.57
2022-12-25T06:54:29.922Z,6.63
2022-12-25T06:56:58.583Z,5.87
2022-12-25T06:59:27.324Z,6.30
2022-12-25T07:01:58.897Z,5.83
2022-12-25T07:04:32.212Z,5.30
2022-12-25T07:07:06.367Z,5.33
2022-12-25T07:09:39.123Z,5.43
2022-12-25T07:12:14.108Z,5.67
2022-12-25T07:14:43.113Z,6.47
2022-12-25T07:17:13.350Z,6.33
2022-12-25T07:19:45.195Z,6.20
2022-12-25T07:22:14.440Z,6.20
2022-12-25T07:24:43.182Z,6.23
2022-12-25T07:27:11.903Z,6.17
2022-12-25T07:29:40.531Z,5.73
2022-12-25T07:32:09.217Z,5.80
2022-12-25T07:34:39.456Z,5.37
2022-12-25T07:37:08.174Z,5.17
2022-12-25T07:39:36.944Z,5.50
2022-12-25T07:42:06.154Z,5.00
2022-12-25T07:44:34.794Z,4.63
2022-12-25T07:47:03.435Z,5.00
2022-12-25T07:49:32.236Z,5.03
2022-12-25T07:52:02.339Z,4.83
2022-12-25T07:54:30.933Z,5.40
2022-12-25T07:56:59.573Z,5.83
2022-12-25T07:59:28.466Z,6.30
2022-12-25T08:01:57.371Z,5.93
2022-12-25T08:04:26.223Z,7.20
2022-12-25T08:06:55.094Z,6.53
2022-12-25T08:09:25.331Z,6.73
2022-12-25T08:11:53.976Z,6.97
2022-12-25T08:14:22.708Z,6.80
2022-12-25T08:16:51.482Z,6.83
2022-12-25T08:19:20.300Z,6.20
2022-12-25T08:21:48.979Z,6.20
2022-12-25T08:24:17.929Z,6.80
2022-12-25T08:26:48.361Z,5.63
2022-12-25T08:29:17.088Z,6.43
2022-12-25T08:31:46.889Z,6.20
2022-12-25T08:34:15.875Z,6.30
2022-12-25T08:36:44.680Z,6.47
2022-12-25T08:39:13.557Z,6.23
2022-12-25T08:41:42.224Z,6.23
2022-12-25T08:44:14.084Z,6.00
2022-12-25T08:46:42.908Z,5.93
2022-12-25T08:49:11.724Z,5.90
2022-12-25T08:51:40.518Z,5.90
2022-12-25T08:54:09.901Z,5.07
2022-12-25T08:56:38.735Z,4.60
2022-12-25T08:59:07.324Z,4.80
2022-12-25T09:01:37.534Z,4.23
2022-12-25T09:04:06.653Z,4.57
2022-12-25T09:06:35.312Z,4.70
2022-12-25T09:09:03.989Z,4.30
2022-12-25T09:11:32.711Z,4.00
2022-12-25T09:14:01.822Z,4.10
2022-12-25T09:16:30.835Z,3.67
2022-12-25T09:19:01.137Z,3.80
2022-12-25T09:21:29.901Z,3.60
2022-12-25T09:23:58.651Z,3.10
2022-12-25T09:26:27.473Z,3.20
2022-12-25T09:28:56.652Z,3.10
2022-12-25T09:31:25.583Z,3.20
2022-12-25T09:33:58.647Z,2.60
2022-12-25T09:36:28.864Z,3.00
2022-12-25T09:38:57.609Z,2.90
2022-12-25T09:41:32.943Z,2.60
2022-12-25T09:44:05.266Z,2.30
2022-12-25T09:46:42.148Z,2.30
2022-12-25T09:49:19.901Z,2.60
2022-12-25T09:51:55.027Z,2.43
2022-12-25T09:54:31.744Z,2.43
2022-12-25T09:57:00.599Z,2.23
2022-12-25T09:59:29.422Z,2.33
2022-12-25T10:02:36.972Z,2.30
2022-12-25T10:05:31.295Z,2.40
2022-12-25T10:08:12.064Z,2.40
2022-12-25T10:10:53.355Z,2.40
2022-12-25T10:13:46.716Z,2.23
2022-12-25T10:16:25.005Z,2.40
2022-12-25T10:19:15.476Z,2.27
2022-12-25T10:21:44.536Z,2.30
2022-12-25T10:24:28.829Z,2.27
2022-12-25T10:26:58.377Z,2.00
2022-12-25T10:29:32.025Z,2.17
2022-12-25T10:32:00.876Z,2.10
2022-12-25T10:34:29.959Z,2.03
2022-12-25T10:37:00.001Z,1.90
2022-12-25T10:39:29.995Z,1.90
2022-12-25T10:42:10.785Z,2.10
2022-12-25T10:44:39.370Z,2.00
2022-12-25T10:47:08.129Z,1.90
2022-12-25T10:49:38.546Z,1.80
2022-12-25T10:52:21.686Z,2.03
2022-12-25T10:54:51.910Z,1.93
2022-12-25T10:57:23.189Z,1.80
2022-12-25T10:59:56.066Z,1.90
2022-12-25T11:02:27.954Z,1.70
2022-12-25T11:05:06.041Z,1.90
2022-12-25T11:07:54.468Z,1.90
2022-12-25T11:10:27.376Z,1.80
2022-12-25T11:12:56.317Z,1.90
2022-12-25T11:15:35.580Z,1.70
2022-12-25T11:18:04.860Z,1.70
2022-12-25T11:20:33.676Z,1.60
2022-12-25T11:23:02.323Z,1.70
2022-12-25T11:25:32.935Z,1.60
2022-12-25T11:28:04.253Z,1.70
2022-12-25T11:30:35.163Z,1.67
2022-12-25T11:33:08.090Z,1.63
2022-12-25T11:35:47.835Z,1.70
2022-12-25T11:38:16.641Z,1.60
2022-12-25T11:40:51.589Z,1.60
2022-12-25T11:43:27.044Z,1.73
2022-12-25T11:46:01.148Z,1.77
2022-12-25T11:48:32.970Z,1.70
2022-12-25T11:51:04.819Z,1.50
2022-12-25T11:53:38.502Z,1.70
2022-12-25T11:56:11.757Z,1.48
2022-12-25T11:58:44.465Z,1.60
2022-12-25T12:01:20.188Z,1.52
2022-12-25T12:03:49.274Z,1.50
2022-12-25T12:06:24.771Z,1.50
2022-12-25T12:08:58.335Z,1.63
2022-12-25T12:11:36.958Z,1.70
2022-12-25T12:14:24.432Z,1.50
2022-12-25T12:16:53.063Z,1.60
2022-12-25T12:19:28.670Z,1.70
2022-12-25T12:22:00.209Z,1.50
2022-12-25T12:24:34.746Z,1.47
2022-12-25T12:27:08.175Z,1.40
2022-12-25T12:29:42.112Z,1.67
2022-12-25T12:32:36.010Z,1.60
2022-12-25T12:35:13.797Z,1.60
2022-12-25T12:37:43.506Z,1.37
2022-12-25T12:40:27.040Z,1.50
2022-12-25T12:42:57.544Z,1.80
2022-12-25T12:45:30.682Z,2.00
2022-12-25T12:47:59.829Z,1.52
2022-12-25T12:50:32.475Z,1.55
2022-12-25T12:53:05.747Z,1.43
2022-12-25T12:55:35.906Z,1.60
2022-12-25T12:58:07.577Z,1.60
2022-12-25T13:00:45.781Z,1.40
2022-12-25T13:03:28.883Z,1.40
2022-12-25T13:06:02.286Z,1.70
2022-12-25T13:08:44.274Z,1.80
2022-12-25T13:11:19.693Z,1.77
2022-12-25T13:13:51.925Z,1.70
2022-12-25T13:16:27.879Z,1.35
2022-12-25T13:18:58.126Z,1.50
2022-12-25T13:21:29.054Z,1.70
2022-12-25T13:23:59.765Z,1.57
2022-12-25T13:26:29.162Z,1.40
2022-12-25T13:28:59.364Z,1.80
2022-12-25T13:31:29.721Z,1.20
2022-12-25T13:34:00.781Z,1.70
2022-12-25T13:36:31.669Z,1.30
2022-12-25T13:39:01.292Z,1.40
2022-12-25T13:41:59.486Z,1.40
2022-12-25T13:44:32.764Z,1.40
2022-12-25T13:47:16.239Z,1.30
2022-12-25T13:49:45.105Z,1.40
2022-12-25T13:52:15.729Z,1.40
2022-12-25T13:54:55.491Z,1.50
2022-12-25T13:57:28.351Z,1.30
2022-12-25T13:59:59.064Z,1.42
2022-12-25T14:02:33.318Z,1.40
2022-12-25T14:05:02.299Z,1.60
2022-12-25T14:07:31.157Z,1.70
2022-12-25T14:10:02.914Z,1.60
2022-12-25T14:12:34.057Z,1.40
2022-12-25T14:15:06.006Z,1.47
2022-12-25T14:17:35.388Z,1.47
2022-12-25T14:20:08.640Z,1.40
2022-12-25T14:22:38.683Z,1.30
2022-12-25T14:25:16.458Z,1.43
2022-12-25T14:27:50.779Z,1.50
2022-12-25T14:30:21.236Z,1.50
2022-12-25T14:32:52.157Z,1.60
2022-12-25T14:35:23.849Z,1.63
2022-12-25T14:37:57.433Z,1.40
2022-12-25T14:40:28.711Z,1.40
2022-12-25T14:42:58.431Z,1.57
2022-12-25T14:45:31.377Z,1.50
2022-12-25T14:48:04.323Z,1.50
2022-12-25T14:50:36.591Z,1.50
2022-12-25T14:53:05.623Z,1.50
2022-12-25T14:55:34.293Z,1.70
2022-12-25T14:58:05.887Z,1.60
2022-12-25T15:00:38.053Z,1.90
2022-12-25T15:03:18.799Z,1.73
2022-12-25T15:05:47.517Z,1.63
2022-12-25T15:08:26.811Z,1.60
2022-12-25T15:11:00.405Z,1.60
2022-12-25T15:13:30.056Z,1.70
2022-12-25T15:16:05.219Z,1.50
2022-12-25T15:18:38.786Z,1.70
2022-12-25T15:21:08.495Z,1.60
2022-12-25T15:23:37.187Z,1.70
2022-12-25T15:26:05.941Z,1.70
2022-12-25T15:28:34.577Z,1.90
2022-12-25T15:31:04.705Z,1.70
2022-12-25T15:33:33.852Z,1.60
2022-12-25T15:36:02.583Z,1.80
2022-12-25T15:38:36.699Z,1.90
2022-12-25T15:41:05.801Z,2.30
2022-12-25T15:43:41.816Z,2.40
2022-12-25T15:46:12.441Z,2.40
2022-12-25T15:48:41.105Z,2.33
2022-12-25T15:51:09.766Z,2.10
2022-12-25T15:53:38.521Z,2.20
2022-12-25T15:56:07.788Z,2.40
2022-12-25T15:58:36.493Z,2.17
2022-12-25T16:01:05.370Z,2.20
2022-12-25T16:03:35.601Z,2.20
2022-12-25T16:06:04.368Z,2.27
2022-12-25T16:08:33.017Z,1.93
2022-12-25T16:11:01.728Z,2.00
2022-12-25T16:13:30.323Z,2.43
2022-12-25T16:15:58.954Z,2.50
2022-12-25T16:18:27.688Z,2.20
2022-12-25T16:20:59.372Z,2.50
2022-12-25T16:23:27.962Z,2.30
2022-12-25T16:25:56.560Z,2.50
2022-12-25T16:28:25.157Z,2.47
2022-12-25T16:30:53.825Z,2.73
2022-12-25T16:33:22.543Z,2.77
2022-12-25T16:35:52.621Z,2.63
2022-12-25T16:38:23.020Z,2.57
2022-12-25T16:40:57.746Z,2.70
2022-12-25T16:43:26.991Z,2.60
2022-12-25T16:45:57.412Z,3.27
2022-12-25T16:48:26.025Z,2.67
2022-12-25T16:50:54.660Z,3.00
2022-12-25T16:53:24.809Z,2.87
2022-12-25T16:55:53.382Z,3.07
2022-12-25T16:58:22.051Z,2.70
2022-12-25T17:00:50.674Z,2.67
2022-12-25T17:03:19.444Z,2.87
2022-12-25T17:05:48.072Z,2.57
2022-12-25T17:08:16.772Z,2.87
2022-12-25T17:10:46.873Z,2.70
2022-12-25T17:13:15.506Z,3.13
2022-12-25T17:15:50.172Z,2.60
2022-12-25T17:18:22.132Z,2.80
2022-12-25T17:20:51.945Z,2.93
2022-12-25T17:23:21.231Z,2.87
2022-12-25T17:25:51.470Z,3.43
2022-12-25T17:28:20.035Z,3.30
2022-12-25T17:30:48.643Z,3.03
2022-12-25T17:33:17.172Z,3.23
2022-12-25T17:35:45.907Z,3.90
2022-12-25T17:38:14.656Z,4.00
2022-12-25T17:40:43.320Z,4.03
2022-12-25T17:43:18.943Z,4.00
2022-12-25T17:45:49.599Z,4.00
2022-12-25T17:48:18.228Z,3.70
2022-12-25T17:50:46.879Z,4.20
2022-12-25T17:53:15.629Z,4.17
2022-12-25T17:55:44.542Z,4.00
2022-12-25T17:58:14.596Z,3.77
2022-12-25T18:00:43.272Z,3.90
2022-12-25T18:03:12.333Z,4.17
2022-12-25T18:05:42.027Z,4.20
2022-12-25T18:08:10.680Z,4.23
2022-12-25T18:10:40.701Z,4.40
2022-12-25T18:13:09.763Z,4.30
2022-12-25T18:15:40.738Z,4.40
2022-12-25T18:18:10.094Z,4.37
2022-12-25T18:20:40.397Z,4.47
2022-12-25T18:23:09.261Z,5.20
2022-12-25T18:25:41.626Z,4.50
2022-12-25T18:28:11.018Z,4.70
2022-12-25T18:30:42.360Z,4.60
2022-12-25T18:33:12.493Z,4.30
2022-12-25T18:35:42.594Z,4.73
2022-12-25T18:38:11.879Z,4.57
2022-12-25T18:40:42.483Z,4.33
2022-12-25T18:43:11.732Z,4.70
2022-12-25T18:45:42.272Z,4.00
2022-12-25T18:48:12.079Z,4.30
2022-12-25T18:50:41.899Z,4.07
2022-12-25T18:53:10.518Z,3.70
2022-12-25T18:55:42.209Z,3.70
2022-12-25T18:58:10.899Z,3.43
2022-12-25T19:00:39.633Z,3.60
2022-12-25T19:03:10.836Z,3.73
2022-12-25T19:05:40.453Z,3.50
2022-12-25T19:08:09.253Z,4.07
2022-12-25T19:10:40.758Z,3.57
2022-12-25T19:13:09.835Z,3.80
2022-12-25T19:15:43.564Z,3.50
2022-12-25T19:18:13.755Z,3.93
2022-12-25T19:20:42.833Z,3.83
2022-12-25T19:23:11.505Z,3.80
2022-12-25T19:25:41.266Z,3.37
2022-12-25T19:28:09.816Z,3.60
2022-12-25T19:30:39.280Z,3.50
2022-12-25T19:33:11.098Z,4.03
2022-12-25T19:35:46.963Z,4.17
2022-12-25T19:38:15.857Z,4.13
2022-12-25T19:41:00.830Z,4.20
2022-12-25T19:43:32.634Z,4.40
2022-12-25T19:46:02.693Z,4.43
2022-12-25T19:48:32.369Z,5.10
2022-12-25T19:51:02.603Z,5.13
2022-12-25T19:53:31.611Z,5.03
2022-12-25T19:56:03.450Z,4.73
2022-12-25T19:58:32.127Z,4.83
2022-12-25T20:01:02.138Z,5.30
2022-12-25T20:03:30.746Z,4.60
2022-12-25T20:05:59.391Z,5.30
2022-12-25T20:08:30.033Z,5.20
2022-12-25T20:10:58.841Z,4.73
2022-12-25T20:13:27.505Z,5.00
2022-12-25T20:16:02.247Z,4.90
2022-12-25T20:18:31.250Z,4.73
2022-12-25T20:21:03.280Z,4.70
2022-12-25T20:23:33.903Z,5.50
2022-12-25T20:26:05.002Z,4.90
2022-12-25T20:28:35.272Z,5.17
2022-12-25T20:31:07.763Z,5.40
2022-12-25T20:33:37.704Z,5.60
2022-12-25T20:36:07.742Z,5.77
2022-12-25T20:38:38.213Z,5.30
2022-12-25T20:41:26.925Z,6.33
2022-12-25T20:43:56.937Z,6.03
2022-12-25T20:46:25.952Z,5.50
2022-12-25T20:48:55.727Z,6.00
2022-12-25T20:51:26.356Z,5.70
2022-12-25T20:53:57.547Z,6.50
2022-12-25T20:56:28.102Z,5.50
2022-12-25T20:58:57.842Z,5.90
2022-12-25T21:01:27.250Z,6.23
2022-12-25T21:03:56.486Z,5.97
2022-12-25T21:06:25.573Z,6.10
2022-12-25T21:08:55.936Z,6.40
2022-12-25T21:11:24.502Z,6.03
2022-12-25T21:13:53.543Z,6.13
2022-12-25T21:16:23.435Z,6.37
2022-12-25T21:18:54.081Z,6.83
2022-12-25T21:21:23.309Z,6.70
2022-12-25T21:23:52.091Z,7.37
2022-12-25T21:26:24.308Z,6.80
2022-12-25T21:28:55.147Z,7.20
2022-12-25T21:31:24.788Z,7.30
2022-12-25T21:33:53.545Z,6.53
2022-12-25T21:36:25.341Z,7.10
2022-12-25T21:38:55.990Z,7.20
2022-12-25T21:41:26.900Z,6.40
2022-12-25T21:43:56.145Z,7.23
2022-12-25T21:46:25.794Z,7.80
2022-12-25T21:48:55.184Z,7.20
2022-12-25T21:51:43.359Z,7.93
2022-12-25T21:54:12.752Z,7.43
2022-12-25T21:56:45.691Z,8.00
2022-12-25T21:59:16.641Z,7.87
2022-12-25T22:01:46.465Z,7.90
2022-12-25T22:04:17.030Z,8.90
2022-12-25T22:07:04.602Z,8.30
2022-12-25T22:09:33.273Z,8.27
2022-12-25T22:12:20.879Z,8.50
2022-12-25T22:14:56.879Z,7.13
2022-12-25T22:17:45.019Z,7.70
2022-12-25T22:20:16.184Z,7.83
2022-12-25T22:22:45.179Z,7.73
2022-12-25T22:25:14.655Z,6.70
2022-12-25T22:27:46.331Z,6.77
2022-12-25T22:30:16.834Z,7.20
2022-12-25T22:32:46.412Z,7.30
2022-12-25T22:35:15.374Z,7.20
2022-12-25T22:37:45.071Z,6.80
2022-12-25T22:40:16.496Z,7.50
2022-12-25T22:42:46.596Z,7.03
2022-12-25T22:45:15.898Z,6.90
2022-12-25T22:47:44.521Z,6.20
2022-12-25T22:50:14.807Z,7.33
2022-12-25T22:52:45.866Z,7.67
2022-12-25T22:55:17.673Z,7.47
2022-12-25T22:57:59.796Z,7.33
2022-12-25T23:00:28.373Z,6.30
2022-12-25T23:02:57.095Z,6.60
2022-12-25T23:05:25.963Z,6.17
2022-12-25T23:07:54.533Z,6.30
2022-12-25T23:10:23.286Z,5.87
2022-12-25T23:13:09.336Z,5.80
2022-12-25T23:15:40.964Z,5.77
2022-12-25T23:18:28.100Z,5.57
2022-12-25T23:21:24.116Z,5.83
2022-12-25T23:24:10.105Z,5.50
2022-12-25T23:26:38.740Z,5.50
2022-12-25T23:29:21.042Z,5.20
2022-12-25T23:31:53.772Z,5.30
2022-12-25T23:34:23.135Z,5.00
2022-12-25T23:36:51.858Z,5.50
2022-12-25T23:39:20.478Z,5.00
2022-12-25T23:41:49.128Z,4.50
2022-12-25T23:44:17.707Z,4.90
2022-12-25T23:46:53.407Z,4.60
2022-12-25T23:49:24.959Z,5.00
2022-12-25T23:51:54.233Z,4.60
2022-12-25T23:54:24.633Z,4.93
2022-12-25T23:56:53.785Z,4.80
2022-12-25T23:59:22.359Z,4.70
